createdAt,value
2023-04-20T00:01:14.885Z,99300.34
2023-04-20T00:05:17.839Z,99293.41
2023-04-20T00:09:20.839Z,99292.97
2023-04-20T00:13:25.501Z,99285.84
2023-04-20T00:17:28.523Z,99280.63
2023-04-20T00:21:31.449Z,99278.97
2023-04-20T00:25:34.333Z,99271.69
2023-04-20T00:29:38.620Z,99264.22
2023-04-20T00:33:42.051Z,99253.69
2023-04-20T00:37:45.216Z,99246.13
2023-04-20T00:41:48.197Z,99236.44
2023-04-20T00:45:52.919Z,99246.56
2023-04-20T00:49:56.728Z,99243.25
2023-04-20T00:53:59.740Z,99234.38
2023-04-20T00:58:03.095Z,99232.03
2023-04-20T01:02:07.733Z,99232.16
2023-04-20T01:06:11.015Z,99228.94
2023-04-20T01:10:14.095Z,99215.53
2023-04-20T01:14:16.958Z,99214.81
2023-04-20T01:18:21.119Z,99175.13
2023-04-20T01:22:25.609Z,99192.91
2023-04-20T01:26:28.835Z,99195.09
2023-04-20T01:30:31.987Z,99183.22
2023-04-20T01:34:35.148Z,99188.91
2023-04-20T01:38:39.968Z,99188.69
2023-04-20T01:42:42.775Z,99173.50
2023-04-20T01:46:45.701Z,99171.34
2023-04-20T01:50:51.824Z,99158.97
2023-04-20T01:54:56.159Z,99161.00
2023-04-20T01:58:59.677Z,99148.63
2023-04-20T02:03:02.734Z,99159.50
2023-04-20T02:07:05.863Z,99150.63
2023-04-20T02:11:10.316Z,99157.69
2023-04-20T02:15:13.349Z,99153.81
2023-04-20T02:19:16.844Z,99144.59
2023-04-20T02:23:19.871Z,99141.38
2023-04-20T02:27:24.404Z,99140.72
2023-04-20T02:31:27.049Z,99133.94
2023-04-20T02:35:29.986Z,99131.50
2023-04-20T02:39:32.984Z,99128.50
2023-04-20T02:43:37.173Z,99095.56
2023-04-20T02:47:40.410Z,99126.84
2023-04-20T02:51:43.384Z,99121.44
2023-04-20T02:55:46.318Z,99116.25
2023-04-20T02:59:50.590Z,99114.59
2023-04-20T03:03:53.710Z,99111.25
2023-04-20T03:07:57.780Z,99099.00
2023-04-20T03:12:02.686Z,99102.91
2023-04-20T03:16:07.690Z,99104.66
2023-04-20T03:20:11.212Z,99097.06
2023-04-20T03:24:14.435Z,99092.69
2023-04-20T03:28:17.402Z,99081.66
2023-04-20T03:32:21.587Z,99049.56
2023-04-20T03:36:24.753Z,99088.31
2023-04-20T03:40:27.992Z,99095.03
2023-04-20T03:44:30.834Z,99088.31
2023-04-20T03:48:35.144Z,99083.75
2023-04-20T03:52:38.460Z,99080.06
2023-04-20T03:56:41.235Z,99079.22
2023-04-20T04:00:44.045Z,99082.56
2023-04-20T04:04:48.454Z,99090.06
2023-04-20T04:08:51.318Z,99078.84
2023-04-20T04:12:54.254Z,99078.00
2023-04-20T04:16:57.313Z,99076.56
2023-04-20T04:21:01.678Z,99077.97
2023-04-20T04:25:05.188Z,99067.69
2023-04-20T04:29:08.021Z,99065.75
2023-04-20T04:33:14.616Z,99066.69
2023-04-20T04:37:19.020Z,99066.47
2023-04-20T04:41:22.196Z,99059.94
2023-04-20T04:45:26.182Z,99066.06
2023-04-20T04:49:30.054Z,99067.06
2023-04-20T04:53:34.259Z,99061.13
2023-04-20T04:57:38.838Z,99050.84
2023-04-20T05:01:41.758Z,99054.34
2023-04-20T05:05:44.547Z,99054.38
2023-04-20T05:09:49.022Z,99055.66
2023-04-20T05:13:51.772Z,99058.81
2023-04-20T05:17:54.562Z,99052.47
2023-04-20T05:21:57.404Z,99035.38
2023-04-20T05:26:01.734Z,99042.38
2023-04-20T05:30:19.003Z,99049.69
2023-04-20T05:34:23.849Z,99053.72
2023-04-20T05:38:26.769Z,99037.84
2023-04-20T05:42:30.867Z,99049.22
2023-04-20T05:46:33.807Z,99053.28
2023-04-20T05:50:36.722Z,99021.28
2023-04-20T05:54:39.545Z,99046.78
2023-04-20T05:58:44.232Z,99042.31
2023-04-20T06:02:47.352Z,99056.06
2023-04-20T06:06:50.962Z,99044.91
2023-04-20T06:10:55.947Z,99054.47
2023-04-20T06:15:00.548Z,99048.59
2023-04-20T06:19:03.497Z,99048.41
2023-04-20T06:23:06.402Z,99030.75
2023-04-20T06:27:09.151Z,99040.94
2023-04-20T06:31:13.335Z,99039.84
2023-04-20T06:35:16.456Z,99039.91
2023-04-20T06:39:19.509Z,99027.09
2023-04-20T06:43:22.680Z,99024.47
2023-04-20T06:47:31.514Z,99013.75
2023-04-20T06:51:34.710Z,99022.03
2023-04-20T06:55:37.734Z,99019.53
2023-04-20T06:59:40.459Z,99016.31
2023-04-20T07:03:47.148Z,99013.56
2023-04-20T07:07:50.328Z,99015.19
2023-04-20T07:11:53.079Z,99001.06
2023-04-20T07:15:55.878Z,99010.44
2023-04-20T07:20:06.506Z,99012.81
2023-04-20T07:24:09.392Z,99013.00
2023-04-20T07:28:12.481Z,99011.63
2023-04-20T07:32:15.613Z,99011.28
2023-04-20T07:36:21.684Z,99004.22
2023-04-20T07:40:24.743Z,98999.75
2023-04-20T07:44:27.792Z,98999.53
2023-04-20T07:48:31.050Z,98996.09
2023-04-20T07:52:35.746Z,98985.09
2023-04-20T07:56:38.557Z,98980.41
2023-04-20T08:00:41.635Z,98973.06
2023-04-20T08:04:45.072Z,98954.88
2023-04-20T08:08:49.682Z,98975.75
2023-04-20T08:12:53.541Z,98984.28
2023-04-20T08:16:56.823Z,98989.97
2023-04-20T08:20:59.877Z,98991.84
2023-04-20T08:25:04.956Z,98995.44
2023-04-20T08:29:07.821Z,98991.94
2023-04-20T08:33:11.486Z,99005.03
2023-04-20T08:37:14.476Z,98998.00
2023-04-20T08:41:18.645Z,99006.59
2023-04-20T08:45:21.577Z,98999.16
2023-04-20T08:49:24.594Z,99009.34
2023-04-20T08:53:27.522Z,99024.50
2023-04-20T08:57:32.170Z,99021.97
2023-04-20T09:01:36.284Z,99018.31
2023-04-20T09:05:40.045Z,99022.53
2023-04-20T09:09:43.631Z,99011.91
2023-04-20T09:13:58.822Z,99012.25
2023-04-20T09:18:12.519Z,99014.44
2023-04-20T09:22:15.486Z,99017.72
2023-04-20T09:26:19.756Z,99022.91
2023-04-20T09:30:26.501Z,99025.25
2023-04-20T09:34:29.693Z,99027.88
2023-04-20T09:38:33.544Z,99029.63
2023-04-20T09:42:39.717Z,99030.22
2023-04-20T09:46:44.627Z,99019.16
2023-04-20T09:50:51.261Z,99021.16
2023-04-20T09:54:55.750Z,99013.69
2023-04-20T09:58:59.054Z,98991.66
2023-04-20T10:03:03.717Z,99008.34
2023-04-20T10:07:08.015Z,99003.00
2023-04-20T10:11:11.152Z,99005.97
2023-04-20T10:15:14.030Z,99002.13
2023-04-20T10:19:18.863Z,98995.22
2023-04-20T10:23:22.594Z,98986.03
2023-04-20T10:27:25.477Z,98971.38
2023-04-20T10:31:37.160Z,98936.34
2023-04-20T10:35:48.044Z,98955.59
2023-04-20T10:39:50.914Z,98952.69
2023-04-20T10:43:53.988Z,98949.56
2023-04-20T10:47:57.148Z,98956.66
2023-04-20T10:52:01.490Z,98948.81
2023-04-20T10:56:04.371Z,98935.22
2023-04-20T11:00:16.945Z,98931.31
2023-04-20T11:04:19.911Z,98918.41
2023-04-20T11:08:24.433Z,98916.13
2023-04-20T11:12:27.333Z,98910.47
2023-04-20T11:16:44.303Z,98903.94
2023-04-20T11:20:53.181Z,98894.28
2023-04-20T11:25:06.954Z,98878.56
2023-04-20T11:29:09.942Z,98871.88
2023-04-20T11:33:13.891Z,98867.72
2023-04-20T11:37:17.827Z,98864.66
2023-04-20T11:41:21.978Z,98852.28
2023-04-20T11:45:24.899Z,98855.31
2023-04-20T11:49:29.885Z,98847.66
2023-04-20T11:53:32.776Z,98847.50
2023-04-20T11:57:37.240Z,98852.34
2023-04-20T12:01:40.062Z,98842.97
2023-04-20T12:05:43.276Z,98838.16
2023-04-20T12:09:46.162Z,98837.06
2023-04-20T12:13:50.428Z,98838.25
2023-04-20T12:17:53.228Z,98829.41
2023-04-20T12:21:56.402Z,98818.13
2023-04-20T12:25:59.258Z,98825.53
2023-04-20T12:30:04.194Z,98810.84
2023-04-20T12:34:09.783Z,98815.91
2023-04-20T12:38:14.555Z,98814.34
2023-04-20T12:42:17.648Z,98810.13
2023-04-20T12:46:21.939Z,98794.56
2023-04-20T12:50:24.665Z,98804.28
2023-04-20T12:54:27.432Z,98803.03
2023-04-20T12:58:30.195Z,98798.28
2023-04-20T13:02:34.665Z,98787.41
2023-04-20T13:06:38.231Z,98786.59
2023-04-20T13:10:42.773Z,98782.09
2023-04-20T13:14:45.932Z,98782.06
2023-04-20T13:18:50.572Z,98779.94
2023-04-20T13:22:57.827Z,98779.97
2023-04-20T13:27:01.855Z,98768.00
2023-04-20T13:31:04.870Z,98761.06
2023-04-20T13:35:12.453Z,98733.88
2023-04-20T13:39:15.710Z,98763.00
2023-04-20T13:43:21.354Z,98803.72
2023-04-20T13:47:25.676Z,98804.88
2023-04-20T13:51:31.205Z,98799.28
2023-04-20T13:55:33.883Z,98796.63
2023-04-20T13:59:36.961Z,98788.84
2023-04-20T14:03:40.018Z,98792.81
2023-04-20T14:07:44.263Z,98795.03
2023-04-20T14:11:47.381Z,98781.34
2023-04-20T14:15:51.447Z,98766.59
2023-04-20T14:19:54.871Z,98760.94
2023-04-20T14:23:59.260Z,98759.53
2023-04-20T14:28:02.746Z,98750.19
2023-04-20T14:32:05.795Z,98745.16
2023-04-20T14:36:09.247Z,98735.72
2023-04-20T14:40:14.282Z,98728.06
2023-04-20T14:44:17.291Z,98756.69
2023-04-20T14:48:20.348Z,98808.22
2023-04-20T14:52:23.224Z,98817.97
2023-04-20T14:56:29.810Z,98830.94
2023-04-20T15:00:32.922Z,98812.72
2023-04-20T15:04:35.941Z,98825.63
2023-04-20T15:08:39.053Z,98822.63
2023-04-20T15:12:43.525Z,98833.06
2023-04-20T15:16:46.520Z,98832.63
2023-04-20T15:20:49.354Z,98833.72
2023-04-20T15:24:52.615Z,98833.72
2023-04-20T15:28:58.018Z,98833.34
2023-04-20T15:33:04.521Z,98819.91
2023-04-20T15:37:08.462Z,98820.69
2023-04-20T15:41:11.626Z,98823.09
2023-04-20T15:45:16.218Z,98808.09
2023-04-20T15:49:20.830Z,98803.19
2023-04-20T15:53:24.247Z,98802.31
2023-04-20T15:57:27.079Z,98801.97
2023-04-20T16:01:31.208Z,98806.53
2023-04-20T16:05:34.501Z,98811.44
2023-04-20T16:09:37.275Z,98799.84
2023-04-20T16:13:40.067Z,98812.13
2023-04-20T16:17:45.363Z,98816.44
2023-04-20T16:21:48.110Z,98813.59
2023-04-20T16:25:52.278Z,98822.19
2023-04-20T16:29:55.200Z,98812.13
2023-04-20T16:34:00.131Z,98815.47
2023-04-20T16:38:03.245Z,98825.41
2023-04-20T16:42:06.199Z,98830.34
2023-04-20T16:46:12.899Z,98828.28
2023-04-20T16:50:19.588Z,98829.56
2023-04-20T16:54:22.753Z,98832.19
2023-04-20T16:58:27.540Z,98855.19
2023-04-20T17:02:33.147Z,98854.97
2023-04-20T17:06:38.516Z,98850.25
2023-04-20T17:10:42.618Z,98868.72
2023-04-20T17:14:47.408Z,98853.19
2023-04-20T17:18:52.697Z,98856.00
2023-04-20T17:22:59.377Z,98855.75
2023-04-20T17:27:05.135Z,98852.81
2023-04-20T17:31:09.308Z,98863.47
2023-04-20T17:35:13.319Z,98855.00
2023-04-20T17:39:20.881Z,98862.66
2023-04-20T17:43:25.769Z,98860.16
2023-04-20T17:47:35.228Z,98850.19
2023-04-20T17:51:40.412Z,98847.13
2023-04-20T17:55:47.010Z,98840.97
2023-04-20T17:59:53.305Z,98839.81
2023-04-20T18:03:59.056Z,98837.63
2023-04-20T18:08:04.313Z,98830.53
2023-04-20T18:12:11.796Z,98837.59
2023-04-20T18:16:17.777Z,98833.72
2023-04-20T18:20:22.416Z,98822.25
2023-04-20T18:24:26.914Z,98841.19
2023-04-20T18:28:31.881Z,98840.88
2023-04-20T18:32:36.910Z,98849.72
2023-04-20T18:36:42.116Z,98834.16
2023-04-20T18:40:47.881Z,98834.28
2023-04-20T18:44:56.831Z,98836.22
2023-04-20T18:49:01.341Z,98832.13
2023-04-20T18:53:06.458Z,98841.59
2023-04-20T18:57:12.768Z,98851.31
2023-04-20T19:01:20.507Z,98849.94
2023-04-20T19:05:26.531Z,98842.63
2023-04-20T19:09:31.406Z,98849.59
2023-04-20T19:13:36.948Z,98850.22
2023-04-20T19:17:46.612Z,98852.72
2023-04-20T19:21:50.767Z,98847.03
2023-04-20T19:25:55.433Z,98850.25
2023-04-20T19:29:59.436Z,98851.94
2023-04-20T19:34:05.246Z,98846.72
2023-04-20T19:38:08.508Z,98856.81
2023-04-20T19:42:13.164Z,98853.25
2023-04-20T19:46:17.741Z,98846.72
2023-04-20T19:50:23.596Z,98840.19
2023-04-20T19:54:27.404Z,98843.41
2023-04-20T19:58:30.433Z,98851.44
2023-04-20T20:02:33.976Z,98833.28
2023-04-20T20:06:38.426Z,98833.47
2023-04-20T20:10:41.895Z,98829.84
2023-04-20T20:14:44.892Z,98836.38
2023-04-20T20:18:49.075Z,98839.34
2023-04-20T20:22:53.528Z,98836.19
2023-04-20T20:26:57.791Z,98838.78
2023-04-20T20:31:02.539Z,98845.69
2023-04-20T20:35:10.802Z,98851.53
2023-04-20T20:39:17.938Z,98849.13
2023-04-20T20:43:23.537Z,98853.66
2023-04-20T20:47:27.959Z,98858.44
2023-04-20T20:51:33.581Z,98843.25
2023-04-20T20:55:41.257Z,98852.28
2023-04-20T20:59:44.975Z,98849.63
2023-04-20T21:03:50.055Z,98843.44
2023-04-20T21:07:53.120Z,98835.72
2023-04-20T21:12:01.749Z,98816.72
2023-04-20T21:16:07.178Z,98835.13
2023-04-20T21:20:13.777Z,98830.78
2023-04-20T21:24:18.665Z,98835.66
2023-04-20T21:28:25.469Z,98830.56
2023-04-20T21:32:31.290Z,98815.47
2023-04-20T21:36:36.462Z,98819.56
2023-04-20T21:40:42.279Z,98816.81
2023-04-20T21:44:51.758Z,98803.94
2023-04-20T21:48:54.508Z,98815.94
2023-04-20T21:52:58.589Z,98820.31
2023-04-20T21:57:02.223Z,98824.78
2023-04-20T22:01:10.405Z,98816.50
2023-04-20T22:05:15.619Z,98814.69
2023-04-20T22:09:20.298Z,98816.16
2023-04-20T22:13:25.280Z,98823.22
2023-04-20T22:17:33.586Z,98813.41
2023-04-20T22:21:38.532Z,98818.78
2023-04-20T22:25:43.265Z,98819.47
2023-04-20T22:29:48.178Z,98814.88
2023-04-20T22:33:54.898Z,98810.25
2023-04-20T22:38:00.032Z,98804.81
2023-04-20T22:42:06.231Z,98806.41
2023-04-20T22:46:11.690Z,98807.44
2023-04-20T22:50:19.097Z,98804.94
2023-04-20T22:54:21.986Z,98802.63
2023-04-20T22:58:26.540Z,98807.44
2023-04-20T23:02:32.035Z,98804.25
2023-04-20T23:06:36.580Z,98804.44
2023-04-20T23:10:41.511Z,98800.81
2023-04-20T23:14:47.873Z,98784.75
2023-04-20T23:18:50.688Z,98801.81
2023-04-20T23:22:55.391Z,98816.88
2023-04-20T23:26:58.254Z,98813.81
2023-04-20T23:31:01.733Z,98804.56
2023-04-20T23:35:04.726Z,98805.59
2023-04-20T23:39:09.208Z,98810.41
2023-04-20T23:43:12.275Z,98807.25
2023-04-20T23:47:15.549Z,98801.34
2023-04-20T23:51:20.095Z,98800.78
2023-04-20T23:55:30.519Z,98808.34
2023-04-20T23:59:33.620Z,98797.31
